createdAt,value
2023-05-15T00:01:47.149Z,22.67
2023-05-15T00:04:15.253Z,26.80
2023-05-15T00:06:45.744Z,23.67
2023-05-15T00:09:13.897Z,22.57
2023-05-15T00:11:44.660Z,31.73
2023-05-15T00:14:13.149Z,28.57
2023-05-15T00:16:41.859Z,25.97
2023-05-15T00:19:10.129Z,21.57
2023-05-15T00:21:38.512Z,23.47
2023-05-15T00:24:06.938Z,26.23
2023-05-15T00:26:35.408Z,25.03
2023-05-15T00:29:03.970Z,21.97
2023-05-15T00:31:33.925Z,22.70
2023-05-15T00:34:01.982Z,21.63
2023-05-15T00:36:30.548Z,21.00
2023-05-15T00:39:00.747Z,25.13
2023-05-15T00:41:34.958Z,20.00
2023-05-15T00:44:03.819Z,18.23
2023-05-15T00:46:33.608Z,20.77
2023-05-15T00:49:04.016Z,21.67
2023-05-15T00:51:32.760Z,19.90
2023-05-15T00:54:01.098Z,21.20
2023-05-15T00:56:31.028Z,25.13
2023-05-15T00:59:00.379Z,23.43
2023-05-15T01:01:33.722Z,18.53
2023-05-15T01:04:07.091Z,21.33
2023-05-15T01:06:35.963Z,22.20
2023-05-15T01:09:12.253Z,23.83
2023-05-15T01:11:42.860Z,20.50
2023-05-15T01:14:11.277Z,21.67
2023-05-15T01:16:39.680Z,21.87
2023-05-15T01:19:08.126Z,18.33
2023-05-15T01:21:43.310Z,20.77
2023-05-15T01:24:20.411Z,30.77
2023-05-15T01:27:10.218Z,26.43
2023-05-15T01:29:50.922Z,23.10
2023-05-15T01:32:25.859Z,22.20
2023-05-15T01:35:17.366Z,23.87
2023-05-15T01:37:50.231Z,23.20
2023-05-15T01:40:20.202Z,22.53
2023-05-15T01:42:54.708Z,23.50
2023-05-15T01:45:25.381Z,26.73
2023-05-15T01:47:55.028Z,23.30
2023-05-15T01:50:23.588Z,28.33
2023-05-15T01:52:55.071Z,30.10
2023-05-15T01:55:24.550Z,20.23
2023-05-15T01:57:53.057Z,20.50
2023-05-15T02:00:22.903Z,28.23
2023-05-15T02:02:51.386Z,27.50
2023-05-15T02:05:19.848Z,24.30
2023-05-15T02:07:48.569Z,21.10
2023-05-15T02:10:18.623Z,26.00
2023-05-15T02:12:47.259Z,22.33
2023-05-15T02:15:17.668Z,25.00
2023-05-15T02:17:47.097Z,27.10
2023-05-15T02:20:15.589Z,21.10
2023-05-15T02:22:44.385Z,28.03
2023-05-15T02:25:12.660Z,27.60
2023-05-15T02:27:58.374Z,26.57
2023-05-15T02:30:39.286Z,22.30
2023-05-15T02:33:25.943Z,21.43
2023-05-15T02:36:07.897Z,19.90
2023-05-15T02:38:47.785Z,15.20
2023-05-15T02:41:17.118Z,17.40
2023-05-15T02:43:46.466Z,15.00
2023-05-15T02:46:15.841Z,14.50
2023-05-15T02:48:44.517Z,15.80
2023-05-15T02:51:12.829Z,17.30
2023-05-15T02:53:42.324Z,18.20
2023-05-15T02:56:10.635Z,17.23
2023-05-15T02:58:39.774Z,18.13
2023-05-15T03:01:07.962Z,14.77
2023-05-15T03:03:37.018Z,13.47
2023-05-15T03:06:05.171Z,15.00
2023-05-15T03:08:33.404Z,9.82
2023-05-15T03:11:01.592Z,11.90
2023-05-15T03:13:29.667Z,14.05
2023-05-15T03:15:57.676Z,16.17
2023-05-15T03:18:26.001Z,17.15
2023-05-15T03:20:54.201Z,17.52
2023-05-15T03:23:22.356Z,18.55
2023-05-15T03:25:51.219Z,12.88
2023-05-15T03:28:19.541Z,26.00
2023-05-15T03:30:47.661Z,18.25
2023-05-15T03:33:16.445Z,22.38
2023-05-15T03:35:45.098Z,28.48
2023-05-15T03:38:13.293Z,19.73
2023-05-15T03:40:41.717Z,19.30
2023-05-15T03:43:11.669Z,16.00
2023-05-15T03:45:40.207Z,17.88
2023-05-15T03:48:08.588Z,18.52
2023-05-15T03:50:37.276Z,22.13
2023-05-15T03:53:05.501Z,18.38
2023-05-15T03:55:33.713Z,14.18
2023-05-15T03:58:02.293Z,16.30
2023-05-15T04:00:30.315Z,21.17
2023-05-15T04:02:58.788Z,17.58
2023-05-15T04:05:26.926Z,20.60
2023-05-15T04:07:55.334Z,22.17
2023-05-15T04:10:23.428Z,20.20
2023-05-15T04:12:52.338Z,23.08
2023-05-15T04:15:24.966Z,24.02
2023-05-15T04:17:57.349Z,18.13
2023-05-15T04:20:27.098Z,14.48
2023-05-15T04:22:55.192Z,16.38
2023-05-15T04:25:24.808Z,20.45
2023-05-15T04:27:53.682Z,16.60
2023-05-15T04:30:22.165Z,21.35
2023-05-15T04:32:52.185Z,28.35
2023-05-15T04:35:21.417Z,20.70
2023-05-15T04:37:49.871Z,24.40
2023-05-15T04:40:18.374Z,20.35
2023-05-15T04:42:46.656Z,25.05
2023-05-15T04:45:15.234Z,24.48
2023-05-15T04:47:43.428Z,18.38
2023-05-15T04:50:11.996Z,23.67
2023-05-15T04:52:40.495Z,17.95
2023-05-15T04:55:09.876Z,17.48
2023-05-15T04:57:38.234Z,23.60
2023-05-15T05:00:12.838Z,21.02
2023-05-15T05:02:43.411Z,23.42
2023-05-15T05:05:11.853Z,24.58
2023-05-15T05:07:40.521Z,23.13
2023-05-15T05:10:09.659Z,31.88
2023-05-15T05:12:38.958Z,27.63
2023-05-15T05:15:08.175Z,22.30
2023-05-15T05:17:36.354Z,21.00
2023-05-15T05:20:05.254Z,20.83
2023-05-15T05:22:34.255Z,23.17
2023-05-15T05:25:03.915Z,26.88
2023-05-15T05:27:33.185Z,23.77
2023-05-15T05:30:01.476Z,16.88
2023-05-15T05:32:30.697Z,23.23
2023-05-15T05:34:58.876Z,24.48
2023-05-15T05:37:27.393Z,15.60
2023-05-15T05:39:55.547Z,19.40
2023-05-15T05:42:23.747Z,20.20
2023-05-15T05:44:51.726Z,18.00
2023-05-15T05:47:45.217Z,22.95
2023-05-15T05:50:13.274Z,24.05
2023-05-15T05:52:42.260Z,18.52
2023-05-15T05:55:10.862Z,17.58
2023-05-15T05:57:39.474Z,15.75
2023-05-15T06:00:12.623Z,17.42
2023-05-15T06:02:41.182Z,15.43
2023-05-15T06:05:09.626Z,12.98
2023-05-15T06:07:37.726Z,14.00
2023-05-15T06:10:10.014Z,13.38
2023-05-15T06:12:38.379Z,20.15
2023-05-15T06:15:08.083Z,21.45
2023-05-15T06:17:36.876Z,19.30
2023-05-15T06:20:12.389Z,20.50
2023-05-15T06:22:42.487Z,19.48
2023-05-15T06:25:15.078Z,21.80
2023-05-15T06:27:43.941Z,16.27
2023-05-15T06:30:12.713Z,18.60
2023-05-15T06:32:42.273Z,17.08
2023-05-15T06:35:10.945Z,25.05
2023-05-15T06:37:39.820Z,18.60
2023-05-15T06:40:09.166Z,19.60
2023-05-15T06:42:37.422Z,18.85
2023-05-15T06:45:06.192Z,26.80
2023-05-15T06:47:34.514Z,18.23
2023-05-15T06:50:02.738Z,16.33
2023-05-15T06:52:31.712Z,18.42
2023-05-15T06:55:00.106Z,23.75
2023-05-15T06:57:28.292Z,19.95
2023-05-15T06:59:56.868Z,16.67
2023-05-15T07:02:25.909Z,20.20
2023-05-15T07:05:15.316Z,14.73
2023-05-15T07:07:43.840Z,18.52
2023-05-15T07:10:12.014Z,17.70
2023-05-15T07:12:41.056Z,22.50
2023-05-15T07:15:09.856Z,18.33
2023-05-15T07:17:38.284Z,20.15
2023-05-15T07:20:07.132Z,24.58
2023-05-15T07:22:44.619Z,19.63
2023-05-15T07:25:17.179Z,19.27
2023-05-15T07:27:46.033Z,23.40
2023-05-15T07:30:14.543Z,18.58
2023-05-15T07:32:52.702Z,19.05
2023-05-15T07:35:27.121Z,17.70
2023-05-15T07:37:55.794Z,18.98
2023-05-15T07:40:24.224Z,13.85
2023-05-15T07:42:52.456Z,24.63
2023-05-15T07:45:21.278Z,12.15
2023-05-15T07:47:50.192Z,20.02
2023-05-15T07:50:18.806Z,21.50
2023-05-15T07:52:46.990Z,12.85
2023-05-15T07:55:15.259Z,20.80
2023-05-15T07:57:43.725Z,14.88
2023-05-15T08:00:12.491Z,17.23
2023-05-15T08:02:41.276Z,17.58
2023-05-15T08:05:09.680Z,15.90
2023-05-15T08:07:38.076Z,19.60
2023-05-15T08:10:07.908Z,14.18
2023-05-15T08:12:36.411Z,14.40
2023-05-15T08:15:05.425Z,17.13
2023-05-15T08:17:34.058Z,11.35
2023-05-15T08:20:02.119Z,18.55
2023-05-15T08:22:33.570Z,12.77
2023-05-15T08:25:04.180Z,11.43
2023-05-15T08:27:33.534Z,11.05
2023-05-15T08:30:01.809Z,13.18
2023-05-15T08:32:30.576Z,11.85
2023-05-15T08:34:58.761Z,15.75
2023-05-15T08:37:26.813Z,12.10
2023-05-15T08:39:54.894Z,7.40
2023-05-15T08:42:30.729Z,10.63
2023-05-15T08:45:00.305Z,9.25
2023-05-15T08:47:32.770Z,5.82
2023-05-15T08:50:07.125Z,6.38
2023-05-15T08:52:35.631Z,6.97
2023-05-15T08:55:04.509Z,4.10
2023-05-15T08:57:34.128Z,5.22
2023-05-15T09:00:06.094Z,7.40
2023-05-15T09:02:37.836Z,3.90
2023-05-15T09:05:06.705Z,4.93
2023-05-15T09:07:36.015Z,10.65
2023-05-15T09:10:04.750Z,5.53
2023-05-15T09:12:35.112Z,10.13
2023-05-15T09:15:13.486Z,7.07
2023-05-15T09:17:43.658Z,8.18
2023-05-15T09:20:30.794Z,9.18
2023-05-15T09:23:00.921Z,6.90
2023-05-15T09:25:41.902Z,4.22
2023-05-15T09:28:26.782Z,5.75
2023-05-15T09:31:00.480Z,5.25
2023-05-15T09:33:34.236Z,5.35
2023-05-15T09:36:06.994Z,5.07
2023-05-15T09:38:43.432Z,10.02
2023-05-15T09:41:12.141Z,5.28
2023-05-15T09:43:43.420Z,8.77
2023-05-15T09:46:13.520Z,4.40
2023-05-15T09:48:41.710Z,4.07
2023-05-15T09:51:19.961Z,7.53
2023-05-15T09:53:53.205Z,9.55
2023-05-15T09:56:22.809Z,4.18
2023-05-15T09:58:58.967Z,3.45
2023-05-15T10:01:28.035Z,4.90
2023-05-15T10:04:03.842Z,3.17
2023-05-15T10:06:42.023Z,3.83
2023-05-15T10:09:11.860Z,6.07
2023-05-15T10:11:44.376Z,5.47
2023-05-15T10:14:14.411Z,8.07
2023-05-15T10:16:42.821Z,4.05
2023-05-15T10:19:12.244Z,4.97
2023-05-15T10:21:42.160Z,4.22
2023-05-15T10:24:11.690Z,4.15
2023-05-15T10:26:41.474Z,6.82
2023-05-15T10:29:14.050Z,7.38
2023-05-15T10:31:42.784Z,6.30
2023-05-15T10:34:12.529Z,8.07
2023-05-15T10:36:43.315Z,9.75
2023-05-15T10:39:12.300Z,5.38
2023-05-15T10:41:41.119Z,6.03
2023-05-15T10:44:10.509Z,8.25
2023-05-15T10:46:39.273Z,5.13
2023-05-15T10:49:07.797Z,4.82
2023-05-15T10:51:38.158Z,6.93
2023-05-15T10:54:06.736Z,11.95
2023-05-15T10:56:39.020Z,5.03
2023-05-15T10:59:09.562Z,10.55
2023-05-15T11:01:39.722Z,5.28
2023-05-15T11:04:15.859Z,8.55
2023-05-15T11:06:46.204Z,4.78
2023-05-15T11:09:27.241Z,3.63
2023-05-15T11:11:58.154Z,7.78
2023-05-15T11:14:35.570Z,9.13
2023-05-15T11:17:08.721Z,4.32
2023-05-15T11:19:56.175Z,4.35
2023-05-15T11:22:37.060Z,10.90
2023-05-15T11:25:09.487Z,10.65
2023-05-15T11:27:38.253Z,3.63
2023-05-15T11:30:18.459Z,8.18
2023-05-15T11:32:55.760Z,8.52
2023-05-15T11:35:42.692Z,6.88
2023-05-15T11:38:10.961Z,9.15
2023-05-15T11:40:53.076Z,11.70
2023-05-15T11:43:26.245Z,5.88
2023-05-15T11:46:11.341Z,7.53
2023-05-15T11:48:48.212Z,5.45
2023-05-15T11:51:26.247Z,7.63
2023-05-15T11:53:56.098Z,10.18
2023-05-15T11:56:26.254Z,16.63
2023-05-15T11:58:59.343Z,9.80
2023-05-15T12:01:28.638Z,7.68
2023-05-15T12:03:56.976Z,10.27
2023-05-15T12:06:25.479Z,7.88
2023-05-15T12:08:54.461Z,5.95
2023-05-15T12:11:25.921Z,9.32
2023-05-15T12:13:55.207Z,13.48
2023-05-15T12:16:27.469Z,6.82
2023-05-15T12:18:57.888Z,7.32
2023-05-15T12:21:29.589Z,6.25
2023-05-15T12:24:07.531Z,10.80
2023-05-15T12:26:37.816Z,6.53
2023-05-15T12:29:06.329Z,10.65
2023-05-15T12:31:35.358Z,12.27
2023-05-15T12:34:03.743Z,12.80
2023-05-15T12:36:32.174Z,11.85
2023-05-15T12:39:06.840Z,9.23
2023-05-15T12:41:38.932Z,17.55
2023-05-15T12:44:07.684Z,15.73
2023-05-15T12:46:36.542Z,10.65
2023-05-15T12:49:04.915Z,7.40
2023-05-15T12:51:33.439Z,7.32
2023-05-15T12:54:01.690Z,9.98
2023-05-15T12:56:30.931Z,14.07
2023-05-15T12:58:59.116Z,5.10
2023-05-15T13:01:29.819Z,9.25
2023-05-15T13:03:59.422Z,12.32
2023-05-15T13:06:41.985Z,9.20
2023-05-15T13:09:14.517Z,14.00
2023-05-15T13:11:45.750Z,7.97
2023-05-15T13:14:17.914Z,8.63
2023-05-15T13:16:47.816Z,12.50
2023-05-15T13:19:17.482Z,10.63
2023-05-15T13:21:46.407Z,9.00
2023-05-15T13:24:15.445Z,7.30
2023-05-15T13:26:43.865Z,9.02
2023-05-15T13:29:12.006Z,8.55
2023-05-15T13:31:53.284Z,7.68
2023-05-15T13:34:21.679Z,5.95
2023-05-15T13:36:49.977Z,14.13
2023-05-15T13:39:18.148Z,4.60
2023-05-15T13:41:46.761Z,9.73
2023-05-15T13:44:15.530Z,4.30
2023-05-15T13:46:44.388Z,10.48
2023-05-15T13:49:12.771Z,5.97
2023-05-15T13:51:43.565Z,4.93
2023-05-15T13:54:12.322Z,7.90
2023-05-15T13:56:41.384Z,4.03
2023-05-15T13:59:10.085Z,6.45
2023-05-15T14:01:48.211Z,6.75
2023-05-15T14:04:17.116Z,3.70
2023-05-15T14:06:45.225Z,4.72
2023-05-15T14:09:13.440Z,8.02
2023-05-15T14:11:41.608Z,3.67
2023-05-15T14:14:10.025Z,5.97
2023-05-15T14:16:38.215Z,6.03
2023-05-15T14:19:07.082Z,5.93
2023-05-15T14:21:35.445Z,9.70
2023-05-15T14:24:05.149Z,5.82
2023-05-15T14:26:45.975Z,6.05
2023-05-15T14:29:14.684Z,7.22
2023-05-15T14:31:44.446Z,10.75
2023-05-15T14:34:12.654Z,9.35
2023-05-15T14:36:47.200Z,10.18
2023-05-15T14:39:16.215Z,9.07
2023-05-15T14:41:44.931Z,10.93
2023-05-15T14:44:12.951Z,11.07
2023-05-15T14:46:43.284Z,8.43
2023-05-15T14:49:11.461Z,4.93
2023-05-15T14:51:40.246Z,11.40
2023-05-15T14:54:08.353Z,4.63
2023-05-15T14:56:37.268Z,7.75
2023-05-15T14:59:05.936Z,13.23
2023-05-15T15:01:43.951Z,10.85
2023-05-15T15:04:15.017Z,8.70
2023-05-15T15:06:44.604Z,8.50
2023-05-15T15:09:13.795Z,11.60
2023-05-15T15:11:44.924Z,6.65
2023-05-15T15:14:15.547Z,9.55
2023-05-15T15:16:44.613Z,11.60
2023-05-15T15:19:17.398Z,10.35
2023-05-15T15:21:47.445Z,8.57
2023-05-15T15:24:16.755Z,7.80
2023-05-15T15:26:45.153Z,8.57
2023-05-15T15:29:17.538Z,9.25
2023-05-15T15:31:46.641Z,13.77
2023-05-15T15:34:15.225Z,5.30
2023-05-15T15:36:44.241Z,7.57
2023-05-15T15:39:13.361Z,14.02
2023-05-15T15:41:41.878Z,8.85
2023-05-15T15:44:10.047Z,8.20
2023-05-15T15:46:38.219Z,13.38
2023-05-15T15:49:06.952Z,10.48
2023-05-15T15:51:36.617Z,10.18
2023-05-15T15:54:05.328Z,10.13
2023-05-15T15:56:33.953Z,11.50
2023-05-15T15:59:03.258Z,8.18
2023-05-15T16:01:33.364Z,13.32
2023-05-15T16:04:01.719Z,13.05
2023-05-15T16:06:30.123Z,5.85
2023-05-15T16:08:58.595Z,6.82
2023-05-15T16:11:26.921Z,13.75
2023-05-15T16:13:55.613Z,11.98
2023-05-15T16:16:24.759Z,7.30
2023-05-15T16:18:55.152Z,7.32
2023-05-15T16:21:24.529Z,16.08
2023-05-15T16:23:53.258Z,7.45
2023-05-15T16:26:21.771Z,9.82
2023-05-15T16:28:51.393Z,10.23
2023-05-15T16:31:21.603Z,28.58
2023-05-15T16:33:55.722Z,36.08
2023-05-15T16:36:24.272Z,18.70
2023-05-15T16:38:52.616Z,23.35
2023-05-15T16:41:21.973Z,33.10
2023-05-15T16:43:50.647Z,24.23
2023-05-15T16:46:20.227Z,37.50
2023-05-15T16:48:48.960Z,45.45
2023-05-15T16:51:17.452Z,36.47
2023-05-15T16:53:46.046Z,47.83
2023-05-15T16:56:14.491Z,36.83
2023-05-15T16:58:46.073Z,20.93
2023-05-15T17:01:14.728Z,67.13
2023-05-15T17:03:44.205Z,22.23
2023-05-15T17:06:12.487Z,46.47
2023-05-15T17:08:43.084Z,28.33
2023-05-15T17:11:12.120Z,31.37
2023-05-15T17:13:41.101Z,31.77
2023-05-15T17:16:09.473Z,37.57
2023-05-15T17:18:40.113Z,23.57
2023-05-15T17:21:08.115Z,29.73
2023-05-15T17:23:36.371Z,29.33
2023-05-15T17:26:04.637Z,37.00
2023-05-15T17:28:35.196Z,28.50
2023-05-15T17:31:12.792Z,21.00
2023-05-15T17:33:42.145Z,23.10
2023-05-15T17:36:10.917Z,28.43
2023-05-15T17:38:39.288Z,26.67
2023-05-15T17:41:07.954Z,30.13
2023-05-15T17:43:36.351Z,25.70
2023-05-15T17:46:06.032Z,21.10
2023-05-15T17:48:34.553Z,32.60
2023-05-15T17:51:02.660Z,23.90
2023-05-15T17:53:32.573Z,48.33
2023-05-15T17:56:01.455Z,28.83
2023-05-15T17:58:30.914Z,21.37
2023-05-15T18:00:59.617Z,27.73
2023-05-15T18:03:27.647Z,45.97
2023-05-15T18:05:56.134Z,47.23
2023-05-15T18:08:24.145Z,18.13
2023-05-15T18:10:52.344Z,56.07
2023-05-15T18:13:21.303Z,23.87
2023-05-15T18:15:49.656Z,41.70
2023-05-15T18:18:17.712Z,26.83
2023-05-15T18:20:46.386Z,27.47
2023-05-15T18:23:15.686Z,37.73
2023-05-15T18:25:44.071Z,38.90
2023-05-15T18:28:13.329Z,26.70
2023-05-15T18:30:42.592Z,54.70
2023-05-15T18:33:14.761Z,42.40
2023-05-15T18:35:43.185Z,54.20
2023-05-15T18:38:15.394Z,137.03
2023-05-15T18:40:46.930Z,49.13
2023-05-15T18:43:16.153Z,26.17
2023-05-15T18:45:44.295Z,26.77
2023-05-15T18:48:13.689Z,32.77
2023-05-15T18:50:42.150Z,25.53
2023-05-15T18:53:10.393Z,13.33
2023-05-15T18:55:39.773Z,36.53
2023-05-15T18:58:08.279Z,36.37
2023-05-15T19:00:38.996Z,33.00
2023-05-15T19:03:09.011Z,37.33
2023-05-15T19:05:38.388Z,30.90
2023-05-15T19:08:07.515Z,21.30
2023-05-15T19:10:38.699Z,37.27
2023-05-15T19:13:07.187Z,38.37
2023-05-15T19:15:35.534Z,34.80
2023-05-15T19:18:04.020Z,28.57
2023-05-15T19:20:32.829Z,36.03
2023-05-15T19:23:01.153Z,31.23
2023-05-15T19:25:29.773Z,21.00
2023-05-15T19:27:58.151Z,20.50
2023-05-15T19:30:26.791Z,27.50
2023-05-15T19:32:55.570Z,24.80
2023-05-15T19:35:24.712Z,29.03
2023-05-15T19:37:53.130Z,30.83
2023-05-15T19:40:21.791Z,36.17
2023-05-15T19:42:50.075Z,25.23
2023-05-15T19:45:18.336Z,26.47
2023-05-15T19:47:46.635Z,21.60
2023-05-15T19:50:15.276Z,17.30
2023-05-15T19:52:45.192Z,30.07
2023-05-15T19:55:17.088Z,20.47
2023-05-15T19:57:45.454Z,16.23
2023-05-15T20:00:14.457Z,28.07
2023-05-15T20:02:45.583Z,19.33
2023-05-15T20:05:15.681Z,16.43
2023-05-15T20:07:44.149Z,21.57
2023-05-15T20:10:12.610Z,19.00
2023-05-15T20:12:43.220Z,24.67
2023-05-15T20:15:14.798Z,20.33
2023-05-15T20:17:43.555Z,28.63
2023-05-15T20:20:12.591Z,22.13
2023-05-15T20:22:45.295Z,19.23
2023-05-15T20:25:15.705Z,20.50
2023-05-15T20:27:44.199Z,14.20
2023-05-15T20:30:12.621Z,20.13
2023-05-15T20:32:41.702Z,18.73
2023-05-15T20:35:11.268Z,16.23
2023-05-15T20:40:27.753Z,14.43
2023-05-15T20:42:57.473Z,19.57
2023-05-15T20:45:26.330Z,19.23
2023-05-15T20:47:56.451Z,13.90
2023-05-15T20:50:25.137Z,14.33
2023-05-15T20:52:53.884Z,17.80
2023-05-15T20:55:22.743Z,15.17
2023-05-15T20:57:51.232Z,15.83
2023-05-15T21:00:19.653Z,14.60
2023-05-15T21:02:48.189Z,14.17
2023-05-15T21:05:16.567Z,10.97
2023-05-15T21:07:45.115Z,11.00
2023-05-15T21:10:13.888Z,17.30
2023-05-15T21:12:43.175Z,11.60
2023-05-15T21:15:29.180Z,20.23
2023-05-15T21:17:57.521Z,14.00
2023-05-15T21:20:27.775Z,16.47
2023-05-15T21:22:56.129Z,18.10
2023-05-15T21:25:24.108Z,10.97
2023-05-15T21:27:52.372Z,21.87
2023-05-15T21:30:21.195Z,11.83
2023-05-15T21:32:49.429Z,18.50
2023-05-15T21:35:18.156Z,10.97
2023-05-15T21:37:46.727Z,10.67
2023-05-15T21:40:15.296Z,15.47
2023-05-15T21:42:44.022Z,12.60
2023-05-15T21:45:12.209Z,11.73
2023-05-15T21:47:41.498Z,17.60
2023-05-15T21:50:10.227Z,12.50
2023-05-15T21:52:40.523Z,12.00
2023-05-15T21:55:12.268Z,14.97
2023-05-15T21:57:40.845Z,13.10
2023-05-15T22:00:09.799Z,13.70
2023-05-15T22:02:39.268Z,19.03
2023-05-15T22:05:10.403Z,18.80
2023-05-15T22:07:39.282Z,15.97
2023-05-15T22:10:08.540Z,15.37
2023-05-15T22:12:38.183Z,15.80
2023-05-15T22:15:07.703Z,15.00
2023-05-15T22:17:37.388Z,11.33
2023-05-15T22:20:14.166Z,8.13
2023-05-15T22:22:42.874Z,9.77
2023-05-15T22:25:14.524Z,13.27
2023-05-15T22:27:43.022Z,7.30
2023-05-15T22:30:11.409Z,16.70
2023-05-15T22:32:41.451Z,7.50
2023-05-15T22:35:10.215Z,7.90
2023-05-15T22:37:41.166Z,7.47
2023-05-15T22:40:11.257Z,9.50
2023-05-15T22:42:41.784Z,13.17
2023-05-15T22:45:10.977Z,11.70
2023-05-15T22:47:56.697Z,11.53
2023-05-15T22:50:24.887Z,6.97
2023-05-15T22:52:53.911Z,15.57
2023-05-15T22:55:23.377Z,14.37
2023-05-15T22:57:51.568Z,12.50
2023-05-15T23:00:19.960Z,11.83
2023-05-15T23:02:48.617Z,10.13
2023-05-15T23:05:17.307Z,12.27
2023-05-15T23:07:45.545Z,13.00
2023-05-15T23:10:14.918Z,8.70
2023-05-15T23:12:43.600Z,13.37
2023-05-15T23:15:12.257Z,17.47
2023-05-15T23:17:40.713Z,13.30
2023-05-15T23:20:13.325Z,13.70
2023-05-15T23:22:41.801Z,9.03
2023-05-15T23:25:10.963Z,12.90
2023-05-15T23:27:41.993Z,9.70
2023-05-15T23:30:12.899Z,12.77
2023-05-15T23:32:41.164Z,15.40
2023-05-15T23:35:09.717Z,11.73
2023-05-15T23:37:38.525Z,14.20
2023-05-15T23:40:07.477Z,11.33
2023-05-15T23:42:35.897Z,8.27
2023-05-15T23:45:04.289Z,11.63
2023-05-15T23:47:32.709Z,9.93
2023-05-15T23:50:01.167Z,9.93
2023-05-15T23:52:29.758Z,12.07
2023-05-15T23:54:58.063Z,9.93
2023-05-15T23:57:26.361Z,9.90
2023-05-15T23:59:54.591Z,16.33
